Time;durP1;ratioP1;P1;durP2;ratioP2;P2;SDS_P1;SDS_P2;PMS_P1;PMS_P2;Temp;Humidity;BMP_temperature;BMP_pressure;BME280_temperature;BME280_humidity;BME280_pressure;Samples;Min_cycle;Max_cycle;Signal;HPM_P1;HPM_P2
2022/06/04 00:00:42;;;;;;;7.55;6.07;;;26.90;96.40;;;;;;5101585;28;20023;-55
2022/06/04 00:03:09;;;;;;;9.07;5.70;;;26.90;96.50;;;;;;5099619;28;20020;-51
2022/06/04 00:05:38;;;;;;;9.65;5.32;;;26.80;96.40;;;;;;5104054;28;20272;-56
2022/06/04 00:08:07;;;;;;;9.30;4.35;;;26.90;96.40;;;;;;5098211;28;20196;-58
2022/06/04 00:16:20;;;;;;;7.10;4.85;;;26.90;96.50;;;;;;5097760;28;20078;-56
2022/06/04 00:18:47;;;;;;;8.35;4.63;;;26.90;96.40;;;;;;5103290;28;20024;-55
2022/06/04 00:21:14;;;;;;;6.10;4.15;;;26.80;96.40;;;;;;5093868;28;20028;-51
2022/06/04 00:23:41;;;;;;;6.20;4.20;;;26.80;96.40;;;;;;5089981;28;20299;-53
2022/06/04 00:26:10;;;;;;;5.88;3.67;;;26.80;96.50;;;;;;5092405;28;20024;-53
2022/06/04 00:28:37;;;;;;;7.80;3.60;;;26.80;96.50;;;;;;5095811;28;20039;-54
2022/06/04 00:31:04;;;;;;;9.52;3.95;;;26.80;96.60;;;;;;5094296;28;20031;-54
2022/06/04 00:33:31;;;;;;;8.15;3.58;;;26.80;96.50;;;;;;5093550;28;20031;-59
2022/06/04 00:36:00;;;;;;;8.23;3.58;;;26.80;96.50;;;;;;5092303;28;20086;-54
2022/06/04 00:38:28;;;;;;;4.20;3.25;;;26.70;96.40;;;;;;5093549;28;20178;-55
2022/06/04 00:41:02;;;;;;;6.70;2.97;;;26.80;96.40;;;;;;5093166;28;20123;-58
2022/06/04 00:43:29;;;;;;;7.82;2.90;;;26.70;96.50;;;;;;5093650;28;20084;-54
2022/06/04 00:46:33;;;;;;;6.65;2.70;;;26.60;96.60;;;;;;5093062;28;20044;-53
2022/06/04 00:48:59;;;;;;;7.25;2.88;;;26.60;96.70;;;;;;5092326;28;20265;-53
2022/06/04 00:51:26;;;;;;;6.35;2.30;;;26.60;96.60;;;;;;5093051;28;20276;-53
2022/06/04 00:53:56;;;;;;;8.10;2.80;;;26.60;96.40;;;;;;5093266;28;20028;-55
2022/06/04 00:56:32;;;;;;;8.18;2.78;;;26.60;96.40;;;;;;5095142;28;20016;-57
2022/06/04 00:59:16;;;;;;;8.13;2.70;;;26.60;96.50;;;;;;5096177;28;20031;-53
2022/06/04 01:01:54;;;;;;;7.78;3.17;;;26.60;96.20;;;;;;5095013;28;20057;-58
2022/06/04 01:04:48;;;;;;;11.55;3.35;;;26.60;96.20;;;;;;5097488;28;20031;-56
2022/06/04 01:07:33;;;;;;;10.07;2.70;;;26.60;96.10;;;;;;5103218;28;20032;-54
2022/06/04 01:10:09;;;;;;;11.52;2.83;;;26.50;95.90;;;;;;5106838;28;20197;-55
2022/06/04 01:12:35;;;;;;;9.23;2.70;;;26.60;95.90;;;;;;5100526;28;20024;-53
2022/06/04 01:15:17;;;;;;;6.35;3.08;;;26.50;95.60;;;;;;5093379;28;20016;-55
2022/06/04 01:18:02;;;;;;;11.40;3.17;;;26.50;95.50;;;;;;5086905;28;20043;-58
2022/06/04 01:20:55;;;;;;;16.58;3.40;;;26.40;95.20;;;;;;5106983;28;20597;-64
2022/06/04 01:23:52;;;;;;;11.07;3.20;;;26.40;95.30;;;;;;5107163;28;20129;-58
2022/06/04 01:26:37;;;;;;;10.52;3.58;;;26.40;95.30;;;;;;5106280;28;20028;-59
2022/06/04 01:29:13;;;;;;;6.40;3.10;;;26.50;95.30;;;;;;5105394;28;20051;-55
2022/06/04 01:31:50;;;;;;;7.22;3.80;;;26.50;95.20;;;;;;5085309;28;20027;-55
2022/06/04 01:34:23;;;;;;;10.27;3.72;;;26.50;95.10;;;;;;5084921;28;20028;-55
2022/06/04 01:37:03;;;;;;;9.18;3.80;;;26.50;95.10;;;;;;5083905;28;20115;-54
2022/06/04 01:41:03;;;;;;;10.20;4.38;;;26.60;95.10;;;;;;5083545;28;20083;-57
2022/06/04 01:42:24;;;;;;;9.55;4.03;;;26.60;95.10;;;;;;5082751;28;20091;-57
2022/06/04 01:44:53;;;;;;;8.63;4.25;;;26.50;95.00;;;;;;5083431;28;20023;-56
2022/06/04 01:47:21;;;;;;;12.80;4.30;;;26.50;95.00;;;;;;5083772;28;20024;-55
2022/06/04 01:49:54;;;;;;;12.70;3.92;;;26.50;95.00;;;;;;5085240;28;20024;-57
2022/06/04 01:52:31;;;;;;;12.18;4.10;;;26.50;95.10;;;;;;5085684;28;20213;-59
2022/06/04 01:55:21;;;;;;;10.35;4.40;;;26.50;95.00;;;;;;5084940;28;20021;-56
2022/06/04 01:58:12;;;;;;;10.13;3.72;;;26.50;94.90;;;;;;5084293;28;20144;-56
2022/06/04 02:00:48;;;;;;;98.50;88.87;;;26.50;94.90;;;;;;5083684;28;20091;-55
2022/06/04 02:03:21;;;;;;;24.52;18.70;;;26.50;95.00;;;;;;5085240;28;20309;-62
2022/06/04 02:05:54;;;;;;;8.88;6.43;;;26.50;95.00;;;;;;5086203;28;20227;-59
2022/06/04 02:08:40;;;;;;;10.82;6.03;;;26.50;95.00;;;;;;5086111;28;20013;-56
2022/06/04 02:11:16;;;;;;;11.82;6.00;;;26.50;95.00;;;;;;5086148;28;20135;-56
2022/06/04 02:13:46;;;;;;;10.02;5.15;;;26.50;94.90;;;;;;5086322;28;20066;-58
2022/06/04 02:16:31;;;;;;;7.45;5.55;;;26.50;94.90;;;;;;5086341;28;20023;-59
2022/06/04 02:19:00;;;;;;;9.82;6.07;;;26.40;94.80;;;;;;5085956;28;20020;-57
2022/06/04 02:21:28;;;;;;;16.98;5.80;;;26.40;94.60;;;;;;5085693;28;20016;-62
2022/06/04 02:23:56;;;;;;;9.10;4.75;;;26.40;94.60;;;;;;5086148;28;20024;-58
2022/06/04 02:26:23;;;;;;;13.85;4.47;;;26.40;94.50;;;;;;5085645;28;20092;-59
2022/06/04 02:28:51;;;;;;;10.13;3.80;;;26.40;94.50;;;;;;5086485;28;20043;-56
2022/06/04 02:31:35;;;;;;;15.50;3.80;;;26.40;94.50;;;;;;5085789;28;20016;-58
2022/06/04 02:34:11;;;;;;;11.35;3.53;;;26.40;94.50;;;;;;5085687;28;20081;-59
2022/06/04 02:37:09;;;;;;;12.05;3.55;;;26.40;94.50;;;;;;5085095;28;20048;-62
2022/06/04 02:39:52;;;;;;;8.82;2.88;;;26.40;94.50;;;;;;5085984;28;20024;-57
2022/06/04 02:42:22;;;;;;;13.32;3.00;;;26.30;94.40;;;;;;5085583;28;20020;-56
2022/06/04 02:44:54;;;;;;;10.10;2.55;;;26.30;94.50;;;;;;5085099;28;20032;-57
2022/06/04 02:47:43;;;;;;;12.88;2.50;;;26.30;94.50;;;;;;5085681;28;20021;-58
2022/06/04 02:50:45;;;;;;;6.53;2.10;;;26.30;94.40;;;;;;5085623;28;20028;-56
2022/06/04 02:53:13;;;;;;;7.65;2.30;;;26.30;94.40;;;;;;5085537;28;20043;-58
2022/06/04 02:55:49;;;;;;;8.05;2.20;;;26.30;94.30;;;;;;5085272;28;20083;-56
2022/06/04 02:58:18;;;;;;;10.73;2.00;;;26.30;94.30;;;;;;5085474;28;20017;-61
2022/06/04 03:00:48;;;;;;;10.23;1.85;;;26.30;94.30;;;;;;5085150;28;20113;-56
2022/06/04 03:03:15;;;;;;;5.97;1.83;;;26.30;94.30;;;;;;5085202;28;20127;-60
2022/06/04 03:05:59;;;;;;;6.18;1.95;;;26.30;94.20;;;;;;5085336;28;20020;-57
2022/06/04 03:08:31;;;;;;;8.43;1.70;;;26.30;94.20;;;;;;5085172;28;20021;-58
2022/06/04 03:10:58;;;;;;;8.80;1.83;;;26.20;94.10;;;;;;5085150;28;20216;-58
2022/06/04 03:13:25;;;;;;;8.68;1.60;;;26.30;94.20;;;;;;5084971;28;20028;-59
2022/06/04 03:15:53;;;;;;;9.00;1.90;;;26.20;94.10;;;;;;5085015;28;20017;-56
2022/06/04 03:18:20;;;;;;;5.65;1.90;;;26.20;94.20;;;;;;5084223;28;20123;-58
2022/06/04 03:20:46;;;;;;;6.22;1.60;;;26.20;94.10;;;;;;5084619;28;20048;-58
2022/06/04 03:23:13;;;;;;;7.00;1.73;;;26.20;94.10;;;;;;5084486;28;20019;-57
2022/06/04 03:25:40;;;;;;;7.75;1.90;;;26.20;94.20;;;;;;5085061;28;20027;-60
2022/06/04 03:28:07;;;;;;;10.50;2.03;;;26.20;94.20;;;;;;5084554;28;20020;-57
2022/06/04 03:30:35;;;;;;;8.68;1.90;;;26.20;94.20;;;;;;5084454;28;20016;-56
2022/06/04 03:33:03;;;;;;;6.68;1.58;;;26.20;94.30;;;;;;5084770;28;20016;-57
2022/06/04 03:35:29;;;;;;;7.28;1.60;;;26.20;94.30;;;;;;5084619;28;20049;-56
2022/06/04 03:37:56;;;;;;;10.75;1.60;;;26.20;94.30;;;;;;5084517;28;20025;-57
2022/06/04 03:40:22;;;;;;;7.95;1.73;;;26.10;94.20;;;;;;5084375;28;20024;-57
2022/06/04 03:42:49;;;;;;;10.68;1.80;;;26.20;94.30;;;;;;5084478;28;20013;-58
2022/06/04 03:45:16;;;;;;;11.15;1.50;;;26.20;94.40;;;;;;5084378;28;20023;-58
2022/06/04 03:47:43;;;;;;;8.25;2.10;;;26.10;94.40;;;;;;5084140;28;20024;-60
2022/06/04 03:50:14;;;;;;;9.45;1.70;;;26.10;94.40;;;;;;5084613;28;20027;-57
2022/06/04 03:52:41;;;;;;;6.35;1.50;;;26.10;94.40;;;;;;5084610;28;20017;-57
2022/06/04 03:55:10;;;;;;;9.25;1.90;;;26.10;94.40;;;;;;5084345;28;20105;-57
2022/06/04 03:57:45;;;;;;;8.45;2.10;;;26.20;94.50;;;;;;5084252;28;20024;-57
2022/06/04 04:00:16;;;;;;;7.85;1.90;;;26.20;94.50;;;;;;5084404;28;20078;-56
2022/06/04 04:02:46;;;;;;;11.25;1.95;;;26.10;94.40;;;;;;5084306;28;20020;-59
2022/06/04 04:05:17;;;;;;;7.85;1.77;;;26.10;94.50;;;;;;5084319;28;20047;-58
2022/06/04 04:07:44;;;;;;;4.20;1.63;;;26.10;94.50;;;;;;5084323;28;20028;-58
2022/06/04 04:10:11;;;;;;;10.80;2.60;;;26.10;94.50;;;;;;5084784;28;20031;-57
2022/06/04 04:12:38;;;;;;;11.77;2.20;;;26.10;94.50;;;;;;5084449;28;20087;-59
2022/06/04 04:15:06;;;;;;;7.55;2.25;;;26.10;94.50;;;;;;5084555;28;20020;-57
2022/06/04 04:17:36;;;;;;;8.70;2.17;;;26.10;94.50;;;;;;5084044;28;20025;-58
2022/06/04 04:20:06;;;;;;;8.45;2.13;;;26.10;94.60;;;;;;5084736;28;20040;-58
2022/06/04 04:22:33;;;;;;;9.88;1.60;;;26.00;94.60;;;;;;5084194;28;20024;-59
2022/06/04 04:25:00;;;;;;;9.88;1.98;;;26.00;94.60;;;;;;5084358;28;20216;-58
2022/06/04 04:27:26;;;;;;;11.18;2.00;;;26.00;94.50;;;;;;5084019;28;20032;-56
2022/06/04 04:29:53;;;;;;;10.27;1.85;;;26.00;94.40;;;;;;5084910;28;20016;-59
2022/06/04 04:32:19;;;;;;;8.07;1.70;;;26.00;94.50;;;;;;5088369;28;20046;-57
2022/06/04 04:34:46;;;;;;;7.80;1.67;;;26.00;94.50;;;;;;5087983;28;20117;-59
2022/06/04 04:37:12;;;;;;;10.60;1.88;;;26.00;94.50;;;;;;5088189;28;20062;-59
2022/06/04 04:39:39;;;;;;;10.18;1.80;;;26.00;94.50;;;;;;5088488;28;20016;-57
2022/06/04 04:42:06;;;;;;;10.82;2.10;;;26.00;94.50;;;;;;5088257;28;20016;-57
2022/06/04 04:44:33;;;;;;;10.18;1.80;;;26.00;94.40;;;;;;5088087;28;20217;-56
2022/06/04 04:47:00;;;;;;;8.32;1.70;;;26.00;94.40;;;;;;5088227;28;20028;-60
2022/06/04 04:49:27;;;;;;;9.13;2.05;;;26.00;94.50;;;;;;5088344;28;20035;-60
2022/06/04 04:51:54;;;;;;;11.60;2.00;;;26.00;94.50;;;;;;5087707;28;20209;-59
2022/06/04 04:54:21;;;;;;;11.90;1.52;;;26.00;94.50;;;;;;5088317;28;20024;-59
2022/06/04 04:56:48;;;;;;;5.30;1.75;;;25.90;94.50;;;;;;5087709;28;20075;-57
2022/06/04 04:59:14;;;;;;;10.57;1.83;;;25.90;94.50;;;;;;5088187;28;20016;-57
2022/06/04 05:01:41;;;;;;;6.40;1.67;;;25.90;94.50;;;;;;5087586;28;20230;-57
2022/06/04 05:04:07;;;;;;;5.85;1.65;;;25.90;94.40;;;;;;5088114;28;20316;-57
2022/06/04 05:06:34;;;;;;;12.45;1.65;;;25.90;94.40;;;;;;5087468;28;20028;-57
2022/06/04 05:09:01;;;;;;;7.07;1.77;;;25.90;94.40;;;;;;5087811;28;20029;-57
2022/06/04 05:11:30;;;;;;;8.35;1.63;;;25.90;94.30;;;;;;5087335;28;20050;-57
2022/06/04 05:13:58;;;;;;;13.65;2.00;;;25.90;94.30;;;;;;5087420;28;20020;-57
2022/06/04 05:16:28;;;;;;;11.40;1.83;;;25.90;94.30;;;;;;5087278;28;20020;-59
2022/06/04 05:18:56;;;;;;;7.80;1.67;;;25.90;94.40;;;;;;5087623;28;20021;-63
2022/06/04 05:21:26;;;;;;;9.75;1.95;;;25.90;94.30;;;;;;5087370;28;20092;-58
2022/06/04 05:23:55;;;;;;;8.38;1.83;;;25.80;94.30;;;;;;5087627;28;20021;-59
2022/06/04 05:26:23;;;;;;;7.70;1.58;;;25.90;94.40;;;;;;5087183;28;20024;-59
2022/06/04 05:28:53;;;;;;;12.60;2.05;;;25.90;94.30;;;;;;5087785;28;20021;-60
2022/06/04 05:31:20;;;;;;;13.05;2.28;;;25.80;94.30;;;;;;5087220;28;20020;-52
2022/06/04 05:33:47;;;;;;;6.60;1.88;;;25.80;94.30;;;;;;5087279;28;20037;-61
2022/06/04 05:36:14;;;;;;;9.23;1.52;;;25.80;94.20;;;;;;5087063;28;20052;-59
2022/06/04 05:38:41;;;;;;;10.32;1.90;;;25.80;94.30;;;;;;5086999;28;20197;-53
2022/06/04 05:41:13;;;;;;;8.35;1.73;;;25.80;94.20;;;;;;5086205;28;20021;-56
2022/06/04 05:43:40;;;;;;;9.90;1.80;;;25.80;94.30;;;;;;5087122;28;20036;-56
2022/06/04 05:46:14;;;;;;;9.43;1.65;;;25.80;94.30;;;;;;5086755;28;20304;-58
2022/06/04 05:48:43;;;;;;;12.00;2.00;;;25.80;94.30;;;;;;5086818;28;20028;-57
2022/06/04 05:51:12;;;;;;;7.25;1.50;;;25.80;94.30;;;;;;5086603;28;20031;-57
2022/06/04 05:53:39;;;;;;;9.02;1.50;;;25.80;94.30;;;;;;5086444;28;20020;-58
2022/06/04 05:56:14;;;;;;;11.98;2.00;;;25.80;94.20;;;;;;5086592;28;20020;-57
2022/06/04 05:58:41;;;;;;;7.70;1.63;;;25.80;94.10;;;;;;5086440;28;20016;-57
2022/06/04 06:01:08;;;;;;;9.90;1.92;;;25.80;94.10;;;;;;5086681;28;20020;-58
2022/06/04 06:03:34;;;;;;;7.45;1.63;;;25.80;94.00;;;;;;5086458;28;20238;-57
2022/06/04 06:06:01;;;;;;;11.50;2.00;;;25.70;94.00;;;;;;5086299;28;20343;-56
2022/06/04 06:08:28;;;;;;;8.20;1.48;;;25.70;93.90;;;;;;5086488;28;20091;-58
2022/06/04 06:10:55;;;;;;;9.88;1.75;;;25.70;94.10;;;;;;5086557;28;20044;-58
2022/06/04 06:13:21;;;;;;;6.03;1.38;;;25.70;93.90;;;;;;5086521;28;20197;-61
2022/06/04 06:15:48;;;;;;;12.45;1.75;;;25.70;93.90;;;;;;5086391;28;20017;-59
2022/06/04 06:18:15;;;;;;;7.07;1.27;;;25.70;93.80;;;;;;5086412;28;20028;-58
2022/06/04 06:20:45;;;;;;;7.80;1.60;;;25.70;93.60;;;;;;5086151;28;20052;-57
2022/06/04 06:23:12;;;;;;;6.35;1.30;;;25.70;93.60;;;;;;5086465;28;20013;-57
2022/06/04 06:25:39;;;;;;;5.35;1.48;;;25.70;93.60;;;;;;5086418;28;20027;-59
2022/06/04 06:28:07;;;;;;;6.38;1.30;;;25.70;93.50;;;;;;5086610;28;20018;-57
2022/06/04 06:30:34;;;;;;;9.80;1.30;;;25.70;93.50;;;;;;5086105;28;20327;-57
2022/06/04 06:33:00;;;;;;;5.50;1.40;;;25.70;93.50;;;;;;5086353;28;20245;-59
2022/06/04 06:35:27;;;;;;;8.73;1.50;;;25.70;93.50;;;;;;5085575;28;20058;-58
2022/06/04 06:37:54;;;;;;;10.45;1.20;;;25.70;93.50;;;;;;5085990;28;20079;-63
2022/06/04 06:40:20;;;;;;;7.63;1.50;;;25.70;93.70;;;;;;5086401;28;20063;-57
2022/06/04 06:42:47;;;;;;;7.85;1.30;;;25.70;93.60;;;;;;5086064;28;20016;-56
2022/06/04 06:45:14;;;;;;;6.63;1.50;;;25.70;93.60;;;;;;5085672;28;20032;-51
2022/06/04 06:47:40;;;;;;;9.48;1.30;;;25.70;93.60;;;;;;5099630;28;20342;-58
2022/06/04 06:50:08;;;;;;;9.10;1.83;;;25.60;93.60;;;;;;5103442;28;20205;-59
2022/06/04 06:52:34;;;;;;;7.00;1.42;;;25.60;93.70;;;;;;5104316;28;20316;-58
2022/06/04 06:55:01;;;;;;;21.88;1.73;;;25.60;93.70;;;;;;5105054;28;20035;-60
2022/06/04 06:57:27;;;;;;;11.65;1.48;;;25.60;93.90;;;;;;5104074;28;20024;-60
2022/06/04 06:59:54;;;;;;;6.20;1.55;;;25.70;93.90;;;;;;5105255;28;20020;-58
2022/06/04 07:02:21;;;;;;;10.95;1.38;;;25.70;93.90;;;;;;5104748;28;20340;-59
2022/06/04 07:04:48;;;;;;;9.35;1.50;;;25.70;93.90;;;;;;5105341;28;20327;-60
2022/06/04 07:07:14;;;;;;;12.02;1.70;;;25.70;93.80;;;;;;5104744;28;20020;-60
2022/06/04 07:09:43;;;;;;;8.93;1.20;;;25.70;93.90;;;;;;5105337;28;20027;-58
2022/06/04 07:12:12;;;;;;;8.93;1.13;;;25.60;93.90;;;;;;5104959;28;20020;-58
2022/06/04 07:14:40;;;;;;;5.10;1.33;;;25.70;93.90;;;;;;5104926;28;20032;-59
2022/06/04 07:17:07;;;;;;;5.88;1.27;;;25.60;93.90;;;;;;5086700;28;20020;-59
2022/06/04 07:19:34;;;;;;;9.43;1.58;;;25.70;94.00;;;;;;5104958;28;20024;-59
2022/06/04 07:22:01;;;;;;;5.53;1.10;;;25.70;94.00;;;;;;5104582;28;20020;-60
2022/06/04 07:24:28;;;;;;;7.25;1.42;;;25.70;94.10;;;;;;5105082;28;20088;-58
2022/06/04 07:26:55;;;;;;;7.85;1.40;;;25.60;94.10;;;;;;5098293;28;20035;-58
2022/06/04 07:29:23;;;;;;;8.43;1.08;;;25.60;94.10;;;;;;5088973;28;20088;-61
2022/06/04 07:31:50;;;;;;;8.55;1.63;;;25.60;94.10;;;;;;5084155;28;20039;-58
2022/06/04 07:34:16;;;;;;;4.63;1.02;;;25.60;94.10;;;;;;5084418;28;20020;-60
2022/06/04 07:36:45;;;;;;;8.75;1.40;;;25.70;94.00;;;;;;5083868;28;20064;-60
2022/06/04 07:39:18;;;;;;;6.80;1.10;;;25.60;94.00;;;;;;5084361;28;20051;-59
2022/06/04 07:41:51;;;;;;;5.88;1.40;;;25.60;93.90;;;;;;5084089;28;20050;-60
2022/06/04 07:44:17;;;;;;;;;;;25.70;94.00;;;;;;5084775;28;20051;-60
2022/06/04 07:46:46;;;;;;;12.65;1.38;;;25.60;94.00;;;;;;5083904;28;19939;-59
2022/06/04 07:49:13;;;;;;;7.25;1.38;;;25.60;94.00;;;;;;5084136;28;20255;-55
2022/06/04 07:51:42;;;;;;;6.45;1.35;;;25.60;94.00;;;;;;5084078;28;20048;-57
2022/06/04 07:54:09;;;;;;;7.15;1.20;;;25.60;93.90;;;;;;5103015;28;20028;-58
2022/06/04 07:56:37;;;;;;;8.50;1.60;;;25.60;93.90;;;;;;5104116;28;20017;-58
2022/06/04 07:59:06;;;;;;;9.77;1.40;;;25.60;94.00;;;;;;5104388;28;20301;-61
2022/06/04 08:01:32;;;;;;;9.32;1.30;;;25.60;94.00;;;;;;5104255;28;20020;-59
2022/06/04 08:03:59;;;;;;;8.30;1.40;;;25.60;94.00;;;;;;5104020;28;20430;-58
2022/06/04 08:06:26;;;;;;;11.05;1.35;;;25.60;93.90;;;;;;5104123;28;20253;-59
2022/06/04 08:08:57;;;;;;;7.35;1.10;;;25.60;94.00;;;;;;5104353;28;20028;-59
2022/06/04 08:11:33;;;;;;;10.27;1.35;;;25.60;94.00;;;;;;5103762;28;20024;-61
2022/06/04 08:13:59;;;;;;;6.57;1.30;;;25.60;94.00;;;;;;5087087;28;20101;-58
2022/06/04 08:16:26;;;;;;;5.65;1.20;;;25.60;94.00;;;;;;5103954;28;20019;-60
2022/06/04 08:18:52;;;;;;;6.07;1.30;;;25.60;93.90;;;;;;5104235;28;20208;-58
2022/06/04 08:21:19;;;;;;;6.32;1.50;;;25.60;94.00;;;;;;5103944;28;20024;-59
2022/06/04 08:23:45;;;;;;;5.57;1.42;;;25.60;94.00;;;;;;5104185;28;20032;-58
2022/06/04 08:26:12;;;;;;;14.05;1.60;;;25.60;94.00;;;;;;5103791;28;20312;-59
2022/06/04 08:28:39;;;;;;;9.70;1.50;;;25.60;93.90;;;;;;5103989;28;20077;-60
2022/06/04 08:31:11;;;;;;;9.23;1.38;;;25.60;93.90;;;;;;5104042;28;20046;-59
2022/06/04 08:33:37;;;;;;;8.80;1.20;;;25.60;94.00;;;;;;5103947;28;20039;-59
2022/06/04 08:36:05;;;;;;;6.15;1.58;;;25.60;94.00;;;;;;5103633;28;20044;-59
2022/06/04 08:38:33;;;;;;;8.90;1.70;;;25.60;94.00;;;;;;5103864;28;20028;-61
2022/06/04 08:41:01;;;;;;;11.20;2.00;;;25.60;93.90;;;;;;5103526;28;20165;-59
2022/06/04 08:43:49;;;;;;;7.20;1.80;;;25.60;93.90;;;;;;5103994;28;20021;-61
2022/06/04 08:46:32;;;;;;;6.20;2.10;;;25.60;94.00;;;;;;5096852;28;20020;-59
2022/06/04 08:49:04;;;;;;;9.00;2.20;;;25.60;94.00;;;;;;5103837;28;20028;-59
2022/06/04 08:51:31;;;;;;;5.13;1.67;;;25.60;94.00;;;;;;5103585;28;20152;-61
2022/06/04 08:57:32;;;;;;;6.97;1.73;;;25.50;94.10;;;;;;5103743;28;20035;-64
2022/06/04 09:00:10;;;;;;;10.60;2.25;;;25.50;94.00;;;;;;5104304;28;20019;-59
2022/06/04 09:03:08;;;;;;;9.52;2.22;;;25.60;94.00;;;;;;5086299;28;20051;-61
2022/06/04 09:05:53;;;;;;;9.88;1.77;;;25.50;93.90;;;;;;5103553;28;20032;-60
2022/06/04 09:08:47;;;;;;;9.27;1.75;;;25.50;93.90;;;;;;5097970;28;20209;-59
2022/06/04 09:11:52;;;;;;;9.65;1.90;;;25.50;93.90;;;;;;5096170;28;20324;-58
2022/06/04 09:14:41;;;;;;;5.93;1.95;;;25.60;94.00;;;;;;5067832;28;20043;-60
2022/06/04 09:17:26;;;;;;;7.28;1.70;;;25.50;93.90;;;;;;5105656;28;20231;-60
2022/06/04 09:19:57;;;;;;;5.78;1.70;;;25.50;94.10;;;;;;5107471;28;20046;-60
2022/06/04 09:22:31;;;;;;;7.03;1.70;;;25.50;94.10;;;;;;5107226;28;20016;-59
2022/06/04 09:24:58;;;;;;;7.45;1.77;;;25.60;94.20;;;;;;5107423;28;20042;-59
2022/06/04 09:27:51;;;;;;;7.47;1.85;;;25.50;94.20;;;;;;5106915;28;20024;-65
2022/06/04 09:30:26;;;;;;;7.40;1.92;;;25.50;94.30;;;;;;5101903;28;20036;-58
2022/06/04 09:33:37;;;;;;;6.47;1.75;;;25.50;94.30;;;;;;5106989;28;20020;-59
2022/06/04 09:36:05;;;;;;;5.28;1.90;;;25.50;94.30;;;;;;5005218;28;20070;-60
2022/06/04 09:38:33;;;;;;;6.65;1.70;;;25.50;94.40;;;;;;5071083;28;20070;-59
2022/06/04 09:41:06;;;;;;;9.52;1.90;;;25.50;94.50;;;;;;5086338;28;20027;-61
2022/06/04 09:43:34;;;;;;;11.40;2.00;;;25.50;94.50;;;;;;5086394;28;20025;-59
2022/06/04 09:46:02;;;;;;;6.50;1.83;;;25.50;94.60;;;;;;5086160;28;20091;-58
2022/06/04 09:48:32;;;;;;;9.68;1.83;;;25.50;94.60;;;;;;5086386;28;20029;-58
2022/06/04 09:51:03;;;;;;;8.30;1.73;;;25.50;94.70;;;;;;5086268;28;20069;-60
2022/06/04 09:53:52;;;;;;;7.45;1.92;;;25.50;94.70;;;;;;5085979;28;20024;-60
2022/06/04 09:56:41;;;;;;;8.25;1.70;;;25.50;94.70;;;;;;5086038;28;20069;-61
2022/06/04 09:59:28;;;;;;;5.90;2.00;;;25.50;94.70;;;;;;5086479;28;20021;-61
2022/06/04 10:02:13;;;;;;;9.48;2.20;;;25.50;94.70;;;;;;5085883;28;20020;-60
2022/06/04 10:04:47;;;;;;;11.65;2.22;;;25.50;94.70;;;;;;5086251;28;20085;-61
2022/06/04 10:07:23;;;;;;;8.20;2.08;;;25.50;94.80;;;;;;5085607;28;20028;-60
2022/06/04 10:09:58;;;;;;;6.63;2.70;;;25.50;94.80;;;;;;5086382;28;20032;-61
2022/06/04 10:15:38;;;;;;;9.45;1.83;;;25.50;94.90;;;;;;5085748;28;20098;-60
2022/06/04 10:18:20;;;;;;;21.00;3.80;;;25.50;95.10;;;;;;5078886;28;20216;-59
2022/06/04 10:20:54;;;;;;;;;;;25.50;95.00;;;;;;5083248;28;20013;-59
2022/06/04 10:23:21;;;;;;;17.23;4.22;;;25.50;95.00;;;;;;5085649;28;19909;-60
2022/06/04 10:26:08;;;;;;;19.55;4.05;;;25.50;95.30;;;;;;5085311;28;20034;-62
2022/06/04 10:29:02;;;;;;;11.18;3.55;;;25.50;95.10;;;;;;5085423;28;20179;-59
2022/06/04 10:31:50;;;;;;;12.45;3.78;;;25.50;95.00;;;;;;5085662;28;20018;-61
2022/06/04 10:34:46;;;;;;;9.55;2.88;;;25.40;94.90;;;;;;5085609;28;20029;-61
2022/06/04 10:37:42;;;;;;;15.00;3.10;;;25.40;94.80;;;;;;5085502;28;20036;-59
2022/06/04 10:40:39;;;;;;;13.45;3.30;;;25.40;94.90;;;;;;5085056;28;20113;-59
2022/06/04 10:43:50;;;;;;;11.77;2.92;;;25.40;95.00;;;;;;5085055;28;20021;-61
2022/06/04 10:46:41;;;;;;;7.95;2.40;;;25.50;95.10;;;;;;5054518;28;20039;-60
2022/06/04 10:49:29;;;;;;;17.10;2.47;;;25.40;95.10;;;;;;5077295;28;20256;-59
2022/06/04 10:52:11;;;;;;;12.25;2.92;;;25.40;95.20;;;;;;5084934;28;20021;-59
2022/06/04 10:55:04;;;;;;;10.50;2.50;;;25.40;95.30;;;;;;5085333;28;20020;-59
2022/06/04 10:57:38;;;;;;;11.45;2.63;;;25.40;95.30;;;;;;5054966;28;20033;-61
2022/06/04 11:00:12;;;;;;;16.48;2.90;;;25.40;95.30;;;;;;5085261;28;20020;-59
2022/06/04 11:03:10;;;;;;;8.63;2.30;;;25.40;95.40;;;;;;5084645;28;20020;-59
2022/06/04 11:05:50;;;;;;;8.38;2.38;;;25.40;95.30;;;;;;5056308;28;20301;-59
2022/06/04 11:08:29;;;;;;;11.65;2.40;;;25.40;95.30;;;;;;5084560;28;20097;-61
2022/06/04 11:11:10;;;;;;;7.72;2.00;;;25.40;95.30;;;;;;5084825;28;20092;-60
2022/06/04 11:13:51;;;;;;;9.02;2.10;;;25.40;95.40;;;;;;5084663;28;20017;-60
2022/06/04 11:16:38;;;;;;;9.25;2.08;;;25.40;95.40;;;;;;5084648;28;20044;-60
2022/06/04 11:19:16;;;;;;;7.25;2.10;;;25.40;95.40;;;;;;5084661;28;20204;-61
2022/06/04 11:22:18;;;;;;;9.30;5.32;;;25.40;95.40;;;;;;5084368;28;20208;-62
2022/06/04 11:24:56;;;;;;;11.43;3.77;;;25.50;95.50;;;;;;5045316;28;20100;-62
2022/06/04 11:27:31;;;;;;;9.80;2.40;;;25.40;95.50;;;;;;5084841;28;20091;-62
2022/06/04 11:29:58;;;;;;;7.10;2.30;;;25.40;95.50;;;;;;5084682;28;20039;-62
2022/06/04 11:32:33;;;;;;;16.00;3.90;;;25.40;95.40;;;;;;5083819;28;20096;-59
2022/06/04 11:35:14;;;;;;;12.65;3.58;;;25.50;95.60;;;;;;5086713;28;20044;-61
2022/06/04 11:37:59;;;;;;;10.70;3.38;;;25.50;95.60;;;;;;5104323;28;20015;-59
2022/06/04 11:40:33;;;;;;;10.25;3.72;;;25.50;95.60;;;;;;5104120;28;20027;-60
2022/06/04 11:43:04;;;;;;;6.60;3.40;;;25.50;95.60;;;;;;5101683;28;20023;-60
2022/06/04 11:45:44;;;;;;;11.65;3.50;;;25.50;95.70;;;;;;5099472;28;20322;-59
2022/06/04 11:48:36;;;;;;;9.90;3.50;;;25.50;95.60;;;;;;5104157;28;20036;-61
2022/06/04 11:51:37;;;;;;;11.57;3.67;;;25.60;95.60;;;;;;5104543;28;20316;-59
2022/06/04 11:54:25;;;;;;;7.85;3.20;;;25.60;95.60;;;;;;5104792;28;20047;-58
2022/06/04 11:57:10;;;;;;;11.10;3.60;;;25.60;95.70;;;;;;5104481;28;20016;-60
2022/06/04 12:00:03;;;;;;;8.95;3.53;;;25.60;95.80;;;;;;5097276;28;20224;-60
2022/06/04 12:02:43;;;;;;;3.83;3.08;;;25.60;95.80;;;;;;5092148;28;20024;-60
2022/06/04 12:05:51;;;;;;;10.40;3.00;;;25.60;95.80;;;;;;5088914;28;20193;-62
2022/06/04 12:08:23;;;;;;;10.10;3.10;;;25.60;95.70;;;;;;5102129;28;20028;-60
2022/06/04 12:11:22;;;;;;;6.78;2.65;;;25.60;95.70;;;;;;5103869;28;20132;-62
2022/06/04 12:14:19;;;;;;;5.63;2.97;;;25.60;95.70;;;;;;5103917;28;20128;-62
2022/06/04 12:17:08;;;;;;;7.72;2.85;;;25.60;95.70;;;;;;5072832;28;20091;-59
2022/06/04 12:25:44;;;;;;;4.82;3.00;;;25.60;95.70;;;;;;5104055;28;20035;-60
2022/06/04 12:28:43;;;;;;;5.60;3.28;;;25.60;95.70;;;;;;5103808;28;20024;-58
2022/06/04 12:31:10;;;;;;;8.80;3.72;;;25.60;95.60;;;;;;5043870;28;20032;-61
2022/06/04 12:33:41;;;;;;;7.65;3.78;;;25.60;95.70;;;;;;5103710;28;20296;-60
2022/06/04 12:36:11;;;;;;;9.87;4.30;;;25.60;95.70;;;;;;5089441;28;20107;-62
2022/06/04 12:38:46;;;;;;;7.80;3.90;;;25.60;95.70;;;;;;5083509;28;20305;-58
2022/06/04 12:41:16;;;;;;;6.90;4.25;;;25.60;95.70;;;;;;5083414;28;20021;-59
2022/06/04 12:43:48;;;;;;;9.63;3.80;;;25.60;95.80;;;;;;5082704;28;20031;-62
2022/06/04 12:46:28;;;;;;;8.38;4.15;;;25.60;95.80;;;;;;5079026;28;20059;-59
2022/06/04 12:48:55;;;;;;;7.25;4.32;;;25.60;95.80;;;;;;5083516;28;20087;-63
2022/06/04 12:51:58;;;;;;;9.32;4.70;;;25.60;95.80;;;;;;5084526;28;20121;-60
2022/06/04 12:54:50;;;;;;;7.78;3.97;;;25.60;95.80;;;;;;5087574;28;20035;-59
2022/06/04 12:57:37;;;;;;;7.15;3.35;;;25.60;95.90;;;;;;5087300;28;20012;-60
2022/06/04 13:00:27;;;;;;;8.02;3.10;;;25.50;95.80;;;;;;5087627;28;20024;-61
2022/06/04 13:03:09;;;;;;;5.97;3.03;;;25.60;95.80;;;;;;5074078;28;20120;-60
2022/06/04 13:05:58;;;;;;;7.28;3.63;;;25.60;95.80;;;;;;5087174;28;20048;-60
2022/06/04 13:08:34;;;;;;;8.15;3.63;;;25.50;95.80;;;;;;5086703;28;20039;-61
2022/06/04 13:11:10;;;;;;;12.00;5.10;;;25.50;95.80;;;;;;5087021;28;20016;-61
2022/06/04 13:13:54;;;;;;;10.75;5.00;;;25.50;95.90;;;;;;5086876;28;20209;-62
2022/06/04 13:16:29;;;;;;;11.65;4.60;;;25.50;95.90;;;;;;5086944;28;20016;-59
2022/06/04 13:19:08;;;;;;;8.30;4.28;;;25.50;95.90;;;;;;5087096;28;20020;-61
2022/06/04 13:21:41;;;;;;;9.57;4.57;;;25.50;96.10;;;;;;5086862;28;20086;-60
2022/06/04 13:24:16;;;;;;;7.45;5.20;;;25.50;95.90;;;;;;5087053;28;20028;-60
2022/06/04 13:26:59;;;;;;;8.85;4.70;;;25.50;95.90;;;;;;5086529;28;20031;-64
2022/06/04 13:29:28;;;;;;;10.60;4.25;;;25.50;95.90;;;;;;5086818;28;20029;-61
2022/06/04 13:31:57;;;;;;;5.55;4.22;;;25.50;95.90;;;;;;5086662;28;20057;-61
2022/06/04 13:34:27;;;;;;;9.93;4.53;;;25.50;95.80;;;;;;5086567;28;20304;-59
2022/06/04 13:37:02;;;;;;;9.55;4.70;;;25.50;95.90;;;;;;5106576;28;20043;-58